Terlton, Oklahoma
Current Conditions -  °F | °C
As of 10:15 PM on Thursday 27 Nov 2014 (Local Time) from KOWP Reporting Station
Clear Clear  
Wind Chill: 39°   Ceiling: Unl
Heat Index: 42°   Visibility: 10mi
Dew Point: 25°   Wind: 6mph
Humidity: 51%   Direction: 170°S
Pressure: 30.3"   Gusts: NA
Location:  36.19°N, 96.49°W
Report Text: KOWP 280415Z AUTO 17005KT 10SM CLR 06/M04 A3030 RMK AO2 T00571037
Loading
Personal Weather Stations






























Interactive Weather Map New forecast layout! Learn more

10-Day Weather Forecast

Advertisements
Track Severe Weather on mobile